Time;durP1;ratioP1;P1;durP2;ratioP2;P2;SDS_P1;SDS_P2;PMS_P1;PMS_P2;Temp;Humidity;BMP_temperature;BMP_pressure;BME280_temperature;BME280_humidity;BME280_pressure;Samples;Min_cycle;Max_cycle;Signal;HPM_P1;HPM_P2
2023/01/11 00:01:30;;;;;;;4.00;2.03;;;10.10;99.90;;;;;;5077603;28;20619;-62
2023/01/11 00:03:57;;;;;;;3.40;2.27;;;10.10;99.90;;;;;;5097787;28;20197;-61
2023/01/11 00:06:24;;;;;;;4.33;2.60;;;10.10;99.90;;;;;;5096623;28;20200;-60
2023/01/11 00:08:51;;;;;;;3.10;2.40;;;10.20;99.90;;;;;;5094987;28;20568;-60
2023/01/11 00:11:17;;;;;;;5.80;2.40;;;10.20;99.90;;;;;;5098370;28;20263;-60
2023/01/11 00:13:44;;;;;;;4.73;1.90;;;10.20;99.90;;;;;;5096814;28;20195;-60
2023/01/11 00:16:11;;;;;;;4.50;2.13;;;10.30;99.90;;;;;;5097509;28;20775;-60
2023/01/11 00:18:39;;;;;;;3.90;1.70;;;10.30;99.90;;;;;;5077589;28;20212;-60
2023/01/11 00:21:07;;;;;;;2.90;2.37;;;10.40;99.90;;;;;;5098272;28;20703;-60
2023/01/11 00:23:35;;;;;;;4.30;1.80;;;10.40;99.90;;;;;;5100643;28;20201;-62
2023/01/11 00:26:04;;;;;;;3.60;2.00;;;10.40;99.90;;;;;;5101421;28;20273;-61
2023/01/11 00:28:31;;;;;;;5.27;2.07;;;10.50;99.90;;;;;;5098796;28;20204;-62
2023/01/11 00:30:58;;;;;;;6.17;1.60;;;10.50;99.90;;;;;;5082843;28;20208;-60
2023/01/11 00:33:25;;;;;;;3.20;1.90;;;10.50;99.90;;;;;;5101525;28;20213;-60
2023/01/11 00:35:52;;;;;;;4.97;2.33;;;10.50;99.90;;;;;;5080356;28;20290;-60
2023/01/11 00:49:24;;;;;;;3.80;1.93;;;10.60;99.90;;;;;;5100632;28;20339;-61
2023/01/11 00:51:50;;;;;;;1.63;1.50;;;10.60;99.90;;;;;;5102473;28;20299;-59
2023/01/11 00:54:17;;;;;;;1.50;1.40;;;10.70;99.90;;;;;;5098727;28;20214;-60
2023/01/11 00:56:44;;;;;;;2.20;1.47;;;10.60;99.90;;;;;;5100629;28;20212;-60
2023/01/11 00:59:11;;;;;;;2.37;1.43;;;10.70;99.90;;;;;;5098438;28;20679;-60
2023/01/11 01:01:38;;;;;;;2.80;1.77;;;10.60;99.90;;;;;;5097364;28;20220;-60
2023/01/11 01:04:05;;;;;;;3.07;1.50;;;10.60;99.90;;;;;;5101853;28;20300;-60
2023/01/11 01:06:31;;;;;;;3.63;1.40;;;10.60;99.90;;;;;;5081601;28;20557;-60
2023/01/11 01:08:59;;;;;;;1.97;1.57;;;10.60;99.90;;;;;;5099467;28;20216;-59
2023/01/11 01:11:26;;;;;;;2.13;1.93;;;10.60;99.90;;;;;;5098887;28;20268;-60
2023/01/11 01:16:38;;;;;;;2.47;1.43;;;10.60;99.90;;;;;;5101414;28;20291;-60
2023/01/11 01:19:06;;;;;;;3.80;1.80;;;10.60;99.90;;;;;;5098872;28;20254;-59
2023/01/11 01:21:32;;;;;;;2.03;1.60;;;10.60;99.90;;;;;;5097959;28;20220;-60
2023/01/11 01:23:59;;;;;;;3.17;1.80;;;10.60;99.90;;;;;;5094849;28;20577;-60
2023/01/11 01:26:26;;;;;;;4.40;2.00;;;10.70;99.90;;;;;;5075149;28;20569;-60
2023/01/11 01:28:53;;;;;;;2.53;1.87;;;10.70;99.90;;;;;;5093587;28;20207;-61
2023/01/11 01:31:20;;;;;;;2.80;1.40;;;10.70;99.90;;;;;;5098584;28;20346;-60
2023/01/11 01:33:46;;;;;;;5.10;1.73;;;10.70;99.90;;;;;;5099748;28;20200;-60
2023/01/11 01:36:13;;;;;;;1.43;1.30;;;10.70;99.90;;;;;;5100777;28;20517;-60
2023/01/11 01:38:40;;;;;;;3.10;1.50;;;10.70;99.90;;;;;;5098528;28;20257;-60
2023/01/11 01:41:07;;;;;;;2.50;1.40;;;10.70;99.90;;;;;;5100994;28;20244;-60
2023/01/11 01:43:58;;;;;;;2.33;1.30;;;10.70;99.90;;;;;;5099323;28;20206;-60
2023/01/11 01:46:30;;;;;;;2.87;1.37;;;10.70;99.90;;;;;;5082279;28;20278;-60
2023/01/11 01:49:05;;;;;;;2.80;1.50;;;10.80;99.90;;;;;;5099630;28;20294;-60
2023/01/11 01:51:38;;;;;;;1.77;1.40;;;10.80;99.90;;;;;;5098869;28;20306;-60
2023/01/11 01:54:10;;;;;;;3.23;1.73;;;10.80;99.90;;;;;;5098627;28;20213;-60
2023/01/11 01:56:44;;;;;;;1.90;1.13;;;10.80;99.90;;;;;;5099597;28;20207;-60
2023/01/11 01:59:14;;;;;;;3.37;2.53;;;10.90;99.90;;;;;;5098197;28;20628;-60
2023/01/11 02:01:46;;;;;;;4.90;1.60;;;10.90;99.90;;;;;;5064051;28;20218;-61
2023/01/11 02:04:24;;;;;;;3.20;1.50;;;10.90;99.90;;;;;;5072247;28;20661;-62
2023/01/11 02:07:03;;;;;;;2.30;1.60;;;10.90;99.90;;;;;;5059231;28;20192;-61
2023/01/11 02:09:39;;;;;;;4.90;1.70;;;10.90;99.90;;;;;;5094972;28;20192;-60
2023/01/11 02:12:07;;;;;;;1.87;1.30;;;10.90;99.90;;;;;;5099377;28;20301;-60
2023/01/11 02:14:36;;;;;;;2.43;1.70;;;11.00;99.90;;;;;;5081675;28;20217;-60
2023/01/11 02:17:04;;;;;;;1.60;1.17;;;11.00;99.90;;;;;;5095729;28;20671;-60
2023/01/11 02:19:49;;;;;;;3.23;1.70;;;11.00;99.90;;;;;;5075094;28;20201;-60
2023/01/11 02:22:43;;;;;;;2.50;1.53;;;11.00;99.90;;;;;;5096341;28;20284;-60
2023/01/11 02:25:34;;;;;;;2.93;1.60;;;11.00;99.90;;;;;;5078963;28;20207;-60
2023/01/11 02:28:07;;;;;;;1.93;1.40;;;11.10;99.90;;;;;;5078498;28;20186;-60
2023/01/11 02:30:49;;;;;;;2.80;2.43;;;11.10;99.90;;;;;;5078314;28;20221;-61
2023/01/11 02:33:25;;;;;;;1.80;1.33;;;11.10;99.90;;;;;;5074396;28;20209;-60
2023/01/11 02:36:23;;;;;;;2.67;1.60;;;11.10;99.90;;;;;;5098058;28;20204;-61
2023/01/11 02:39:03;;;;;;;3.30;1.50;;;11.20;99.90;;;;;;5078930;28;20224;-60
2023/01/11 02:45:17;;;;;;;1.97;1.80;;;11.20;99.90;;;;;;5099428;28;20658;-59
2023/01/11 02:47:56;;;;;;;2.40;1.63;;;11.30;99.90;;;;;;5094303;28;20681;-60
2023/01/11 02:50:29;;;;;;;3.20;1.93;;;11.20;99.90;;;;;;5099534;28;20240;-60
2023/01/11 02:53:05;;;;;;;1.87;1.20;;;11.30;99.90;;;;;;5078152;28;20575;-61
2023/01/11 02:55:40;;;;;;;1.97;1.83;;;11.30;99.90;;;;;;5088408;28;20271;-60
2023/01/11 02:58:10;;;;;;;3.97;1.83;;;11.30;99.90;;;;;;5090255;28;20628;-60
2023/01/11 03:00:39;;;;;;;1.47;1.37;;;11.30;99.90;;;;;;5063639;28;20209;-59
2023/01/11 03:03:23;;;;;;;1.60;1.50;;;11.30;99.90;;;;;;5063611;28;20656;-60
2023/01/11 03:05:58;;;;;;;1.87;1.60;;;11.30;99.90;;;;;;5098290;28;20228;-61
2023/01/11 03:08:47;;;;;;;3.40;1.90;;;11.30;99.90;;;;;;5097426;28;20222;-59
2023/01/11 03:12:50;;;;;;;3.27;1.97;;;11.30;99.90;;;;;;5099032;28;20236;-60
2023/01/11 03:14:32;;;;;;;3.17;2.17;;;11.30;99.90;;;;;;5098012;28;20212;-59
2023/01/11 03:17:07;;;;;;;3.63;1.90;;;11.40;99.90;;;;;;5098045;28;20299;-59
2023/01/11 03:19:45;;;;;;;3.63;2.17;;;11.40;99.90;;;;;;5095125;28;20547;-60
2023/01/11 03:22:30;;;;;;;2.63;2.37;;;11.30;99.90;;;;;;5098896;28;20200;-59
2023/01/11 03:25:16;;;;;;;3.30;2.80;;;11.40;99.90;;;;;;5097013;28;20296;-61
2023/01/11 03:28:05;;;;;;;2.20;2.00;;;11.40;99.90;;;;;;5079306;28;20560;-60
2023/01/11 03:30:38;;;;;;;6.50;2.93;;;11.40;99.90;;;;;;5078817;28;20213;-61
2023/01/11 03:33:11;;;;;;;3.47;3.00;;;11.40;99.90;;;;;;5078779;28;20205;-60
2023/01/11 03:35:40;;;;;;;6.47;3.23;;;11.40;99.90;;;;;;5095027;28;20657;-59
2023/01/11 03:38:23;;;;;;;2.93;2.50;;;11.40;99.90;;;;;;5091573;28;20284;-60
2023/01/11 03:40:57;;;;;;;4.47;3.20;;;11.40;99.90;;;;;;5094704;28;20225;-59
2023/01/11 03:43:27;;;;;;;3.73;3.13;;;11.40;99.90;;;;;;5093290;28;20573;-61
2023/01/11 03:46:08;;;;;;;3.50;3.03;;;11.40;99.90;;;;;;5076962;28;20215;-62
2023/01/11 03:48:57;;;;;;;3.10;2.80;;;11.40;99.90;;;;;;5094018;28;20211;-62
2023/01/11 03:51:27;;;;;;;3.27;2.70;;;11.50;99.90;;;;;;5080128;28;20240;-60
2023/01/11 03:53:58;;;;;;;4.03;3.10;;;11.40;99.90;;;;;;5097005;28;20214;-60
2023/01/11 03:56:34;;;;;;;4.33;2.77;;;11.50;99.90;;;;;;5097762;28;20224;-60
2023/01/11 03:59:01;;;;;;;4.47;3.10;;;11.40;99.90;;;;;;5091444;28;20581;-60
2023/01/11 04:01:28;;;;;;;3.40;2.90;;;11.50;99.90;;;;;;5093437;28;20250;-60
2023/01/11 04:03:55;;;;;;;2.57;2.33;;;11.50;99.90;;;;;;5095696;28;20200;-61
2023/01/11 04:06:24;;;;;;;2.33;2.13;;;11.50;99.90;;;;;;5078748;28;20608;-60
2023/01/11 04:08:51;;;;;;;2.47;2.23;;;11.40;99.90;;;;;;5095392;28;20206;-60
2023/01/11 04:11:17;;;;;;;3.00;2.37;;;11.50;99.90;;;;;;5099185;28;20320;-60
2023/01/11 04:13:44;;;;;;;2.40;2.10;;;11.50;99.90;;;;;;5095836;28;20200;-60
2023/01/11 04:16:11;;;;;;;2.00;1.90;;;11.50;99.90;;;;;;5079687;28;20205;-60
2023/01/11 04:18:38;;;;;;;4.20;1.80;;;11.50;99.90;;;;;;5076903;28;20204;-61
2023/01/11 04:21:04;;;;;;;1.50;1.40;;;11.50;99.90;;;;;;5081281;28;20212;-60
2023/01/11 04:23:31;;;;;;;1.87;1.57;;;11.50;99.90;;;;;;5098256;28;20196;-60
2023/01/11 04:25:58;;;;;;;3.23;1.43;;;11.50;99.90;;;;;;5074754;28;20199;-60
2023/01/11 04:28:25;;;;;;;1.30;1.20;;;11.50;99.90;;;;;;5094095;28;20211;-63
2023/01/11 04:30:52;;;;;;;1.13;1.00;;;11.50;99.90;;;;;;5097803;28;20396;-60
2023/01/11 04:33:19;;;;;;;1.30;1.00;;;11.50;99.90;;;;;;5077587;28;20586;-60
2023/01/11 04:35:45;;;;;;;1.20;0.90;;;11.50;99.90;;;;;;5097148;28;20209;-61
2023/01/11 04:38:12;;;;;;;0.60;0.60;;;11.50;99.90;;;;;;5075638;28;20193;-61
2023/01/11 04:40:39;;;;;;;1.20;0.80;;;11.50;99.90;;;;;;5077859;28;20740;-59
2023/01/11 04:43:06;;;;;;;0.80;0.80;;;11.50;99.90;;;;;;5077509;28;20202;-59
2023/01/11 04:45:33;;;;;;;0.77;0.70;;;11.50;99.90;;;;;;5077200;28;20286;-60
2023/01/11 04:47:59;;;;;;;2.20;0.90;;;11.50;99.90;;;;;;5089551;28;20207;-61
2023/01/11 04:50:27;;;;;;;2.10;0.80;;;11.50;99.90;;;;;;5095162;28;20225;-59
2023/01/11 04:52:53;;;;;;;1.80;1.17;;;11.50;99.90;;;;;;5095551;28;20228;-61
2023/01/11 04:55:20;;;;;;;1.73;1.27;;;11.50;99.90;;;;;;5077594;28;20203;-60
2023/01/11 04:57:47;;;;;;;2.47;1.70;;;11.50;99.90;;;;;;5078303;28;20202;-59
2023/01/11 05:00:14;;;;;;;1.70;1.60;;;11.60;99.90;;;;;;5096441;28;21078;-60
2023/01/11 05:02:41;;;;;;;3.27;2.03;;;11.60;99.90;;;;;;5078869;28;20203;-62
2023/01/11 05:05:09;;;;;;;2.27;2.07;;;11.50;99.90;;;;;;5075036;28;20270;-62
2023/01/11 05:07:37;;;;;;;5.20;2.90;;;11.60;99.90;;;;;;5088137;28;20562;-60
2023/01/11 05:10:05;;;;;;;3.80;3.40;;;11.60;99.90;;;;;;5071618;28;20693;-60
2023/01/11 05:12:31;;;;;;;5.83;3.57;;;11.60;99.90;;;;;;5090437;28;20257;-60
2023/01/11 05:14:58;;;;;;;5.10;3.47;;;11.60;99.90;;;;;;5079500;28;20209;-60
2023/01/11 05:17:25;;;;;;;4.27;3.67;;;11.60;99.90;;;;;;5096983;28;20206;-60
2023/01/11 05:19:52;;;;;;;4.30;3.70;;;11.60;99.90;;;;;;5071459;28;20295;-60
2023/01/11 05:22:18;;;;;;;5.90;3.37;;;11.60;99.90;;;;;;5077481;28;20682;-60
2023/01/11 05:24:45;;;;;;;6.07;3.20;;;11.60;99.90;;;;;;5097593;28;20568;-60
2023/01/11 05:27:12;;;;;;;4.20;3.13;;;11.60;99.90;;;;;;5099165;28;20197;-62
2023/01/11 05:29:39;;;;;;;6.53;3.43;;;11.60;99.90;;;;;;5079096;28;20569;-60
2023/01/11 05:32:05;;;;;;;5.00;3.63;;;11.60;99.90;;;;;;5099808;28;20227;-61
2023/01/11 05:34:32;;;;;;;9.53;3.37;;;11.60;99.90;;;;;;5095077;28;20210;-60
2023/01/11 05:36:59;;;;;;;6.77;2.93;;;11.60;99.90;;;;;;5079173;28;20298;-60
2023/01/11 05:39:26;;;;;;;8.33;2.90;;;11.60;99.90;;;;;;5097258;28;20735;-61
2023/01/11 05:41:53;;;;;;;8.33;2.87;;;11.60;99.90;;;;;;5098858;28;20283;-60
2023/01/11 05:47:05;;;;;;;12.17;2.27;;;11.40;99.90;;;;;;5097084;28;20213;-60
2023/01/11 05:49:32;;;;;;;8.53;2.27;;;11.30;99.90;;;;;;5093671;28;21158;-60
2023/01/11 05:51:58;;;;;;;9.80;2.77;;;11.20;99.90;;;;;;5098720;28;20680;-60
2023/01/11 05:54:25;;;;;;;10.07;2.27;;;11.30;99.90;;;;;;5094504;28;20206;-62
2023/01/11 05:56:55;;;;;;;15.27;2.40;;;11.20;99.90;;;;;;5097041;28;20589;-60
2023/01/11 05:59:22;;;;;;;13.57;2.40;;;11.20;99.90;;;;;;5079612;28;20666;-60
2023/01/11 06:01:49;;;;;;;8.73;1.90;;;11.20;99.90;;;;;;5081103;28;20215;-61
2023/01/11 06:04:16;;;;;;;7.87;2.13;;;11.20;99.90;;;;;;5094947;28;20542;-60
2023/01/11 06:06:43;;;;;;;4.33;2.00;;;11.20;99.90;;;;;;5099088;28;20234;-62
2023/01/11 06:09:10;;;;;;;13.10;2.40;;;11.10;99.90;;;;;;5074686;28;20198;-60
2023/01/11 06:11:36;;;;;;;11.40;2.53;;;11.10;99.90;;;;;;5076687;28;20670;-61
2023/01/11 06:14:03;;;;;;;12.97;2.47;;;11.00;99.90;;;;;;5089221;28;20654;-61
2023/01/11 06:16:30;;;;;;;9.33;2.23;;;11.00;99.90;;;;;;5094678;28;20669;-60
2023/01/11 06:18:57;;;;;;;8.10;2.27;;;11.00;99.90;;;;;;5096240;28;20201;-60
2023/01/11 06:21:24;;;;;;;12.93;2.03;;;11.00;99.90;;;;;;5082215;28;20214;-60
2023/01/11 06:23:51;;;;;;;7.90;2.03;;;11.00;99.90;;;;;;5097013;28;20193;-60
2023/01/11 06:26:20;;;;;;;11.27;2.20;;;10.90;99.90;;;;;;5081690;28;20207;-61
2023/01/11 06:28:47;;;;;;;14.73;2.07;;;10.90;99.90;;;;;;5097454;28;20713;-60
2023/01/11 06:31:15;;;;;;;12.67;2.53;;;10.90;99.90;;;;;;5100546;28;20259;-60
2023/01/11 06:33:44;;;;;;;16.40;2.20;;;10.80;99.90;;;;;;5097815;28;20213;-62
2023/01/11 06:36:12;;;;;;;13.37;2.63;;;10.80;99.90;;;;;;5099101;28;20201;-60
2023/01/11 06:38:40;;;;;;;11.33;2.67;;;10.80;99.90;;;;;;5096094;28;20593;-63
2023/01/11 06:41:08;;;;;;;11.00;2.13;;;10.70;99.90;;;;;;5099154;28;20298;-60
2023/01/11 06:43:37;;;;;;;14.03;2.93;;;10.70;99.90;;;;;;5078914;28;20686;-61
2023/01/11 06:46:04;;;;;;;15.70;3.20;;;10.70;99.90;;;;;;5097271;28;20623;-60
2023/01/11 06:48:31;;;;;;;12.17;2.73;;;10.70;99.90;;;;;;5077107;28;20206;-60
2023/01/11 06:50:58;;;;;;;9.93;2.47;;;10.70;99.90;;;;;;5080049;28;20241;-61
2023/01/11 06:53:26;;;;;;;11.67;2.10;;;10.70;99.90;;;;;;5096157;28;20201;-61
2023/01/11 06:55:56;;;;;;;9.70;2.00;;;10.70;99.90;;;;;;5097159;28;20411;-60
2023/01/11 06:58:24;;;;;;;16.90;2.27;;;10.60;99.90;;;;;;5077308;28;20232;-60
2023/01/11 07:00:54;;;;;;;21.00;2.93;;;10.60;99.90;;;;;;5055022;28;20248;-61
2023/01/11 07:03:24;;;;;;;12.93;2.67;;;10.50;99.90;;;;;;5098694;28;20311;-62
2023/01/11 07:05:53;;;;;;;17.53;2.20;;;10.50;99.90;;;;;;5077462;28;20661;-60
2023/01/11 07:08:19;;;;;;;12.73;2.30;;;10.60;99.90;;;;;;5072547;28;20228;-60
2023/01/11 07:10:47;;;;;;;10.77;2.47;;;10.60;99.90;;;;;;5076685;28;20240;-59
2023/01/11 07:13:17;;;;;;;11.53;2.20;;;10.60;99.90;;;;;;5098065;28;20194;-60
2023/01/11 07:15:47;;;;;;;10.07;2.73;;;10.50;99.90;;;;;;5097451;28;20275;-60
2023/01/11 07:18:14;;;;;;;12.97;2.33;;;10.50;99.90;;;;;;5097442;28;20233;-59
2023/01/11 07:20:40;;;;;;;18.23;2.60;;;10.50;99.90;;;;;;5099803;28;20199;-61
2023/01/11 07:23:08;;;;;;;14.67;2.70;;;10.50;99.90;;;;;;5094211;28;20201;-60
2023/01/11 07:25:35;;;;;;;14.97;2.70;;;10.50;99.90;;;;;;5074362;28;20204;-60
2023/01/11 07:28:07;;;;;;;10.60;2.33;;;10.50;99.90;;;;;;5094974;28;20191;-60
2023/01/11 07:30:36;;;;;;;15.00;2.67;;;10.40;99.90;;;;;;5090070;28;20631;-62
2023/01/11 07:33:21;;;;;;;10.87;2.47;;;10.40;99.90;;;;;;5088957;28;20280;-60
2023/01/11 07:35:48;;;;;;;18.43;2.83;;;10.40;99.90;;;;;;5081210;28;20219;-61
2023/01/11 07:38:15;;;;;;;11.67;2.27;;;10.40;99.90;;;;;;5067187;28;20743;-60
2023/01/11 07:40:42;;;;;;;11.47;2.50;;;10.30;99.90;;;;;;5087720;28;20717;-61
2023/01/11 07:43:13;;;;;;;11.47;3.10;;;10.30;99.90;;;;;;5083301;28;20622;-60
2023/01/11 07:45:49;;;;;;;11.33;2.60;;;10.30;99.90;;;;;;4701607;28;9999621;-61
2023/01/11 07:48:23;;;;;;;10.33;2.77;;;10.20;99.90;;;;;;5070835;28;20204;-60
2023/01/11 07:50:51;;;;;;;10.37;2.43;;;10.20;99.90;;;;;;5058390;28;20231;-61
2023/01/11 07:53:18;;;;;;;17.13;2.33;;;10.20;99.90;;;;;;5074432;28;20345;-62
2023/01/11 07:55:45;;;;;;;14.57;2.87;;;10.10;99.90;;;;;;5076216;28;20223;-61
2023/01/11 07:58:13;;;;;;;11.73;3.00;;;10.10;99.90;;;;;;5056210;28;20197;-62
2023/01/11 08:00:40;;;;;;;12.97;2.23;;;10.10;99.90;;;;;;5073356;28;20313;-61
2023/01/11 08:03:08;;;;;;;13.23;2.50;;;10.10;99.90;;;;;;5052828;28;20252;-61
2023/01/11 08:05:35;;;;;;;10.00;2.17;;;10.00;99.90;;;;;;5068923;28;20945;-60
2023/01/11 08:08:02;;;;;;;16.00;1.67;;;10.00;99.90;;;;;;5075734;28;20288;-61
2023/01/11 08:10:29;;;;;;;15.47;2.53;;;10.00;99.90;;;;;;5073137;28;20228;-61
2023/01/11 08:15:42;;;;;;;16.93;2.10;;;9.90;99.90;;;;;;5078443;28;20302;-61
2023/01/11 08:18:10;;;;;;;9.50;1.93;;;9.90;99.90;;;;;;5076488;28;20212;-63
2023/01/11 08:20:38;;;;;;;8.57;1.70;;;9.90;99.90;;;;;;5076496;28;20201;-61
2023/01/11 08:23:07;;;;;;;12.47;2.30;;;9.90;99.90;;;;;;5074459;28;20214;-61
2023/01/11 08:25:34;;;;;;;13.03;2.20;;;9.90;99.90;;;;;;5081308;28;20220;-62
2023/01/11 08:28:02;;;;;;;11.80;2.50;;;9.90;99.90;;;;;;5060776;28;20312;-61
2023/01/11 08:30:29;;;;;;;8.90;1.97;;;9.80;99.90;;;;;;5072001;28;20283;-62
2023/01/11 08:32:58;;;;;;;10.20;2.07;;;9.80;99.90;;;;;;5056256;28;20211;-60
2023/01/11 08:35:25;;;;;;;13.13;2.47;;;9.70;99.90;;;;;;5074511;28;20288;-61
2023/01/11 08:37:52;;;;;;;15.40;2.70;;;9.70;99.90;;;;;;5078214;28;20419;-60
2023/01/11 08:40:19;;;;;;;10.17;2.17;;;9.60;99.90;;;;;;5076719;28;20681;-62
2023/01/11 08:44:57;;;;;;;12.83;2.43;;;9.70;99.90;;;;;;5043979;28;20772;-61
2023/01/11 08:47:24;;;;;;;7.80;2.13;;;9.70;99.90;;;;;;5040509;28;20225;-60
2023/01/11 08:49:51;;;;;;;11.97;2.23;;;9.60;99.90;;;;;;5046149;28;20201;-60
2023/01/11 08:52:17;;;;;;;13.10;2.50;;;9.60;99.90;;;;;;5048934;28;20266;-62
2023/01/11 08:54:44;;;;;;;15.07;2.20;;;9.60;99.90;;;;;;5044896;28;20209;-61
2023/01/11 08:57:11;;;;;;;11.50;3.00;;;9.60;99.90;;;;;;5047193;28;20669;-59
2023/01/11 08:59:38;;;;;;;8.27;2.17;;;9.50;99.90;;;;;;5047604;28;20208;-63
2023/01/11 09:02:05;;;;;;;9.10;2.13;;;9.60;99.90;;;;;;5047912;28;20661;-61
2023/01/11 09:04:32;;;;;;;13.83;2.40;;;9.60;99.90;;;;;;5047662;28;20354;-61
2023/01/11 09:07:00;;;;;;;10.10;2.20;;;9.50;99.90;;;;;;5048822;28;20207;-59
2023/01/11 09:09:27;;;;;;;11.77;2.27;;;9.50;99.90;;;;;;5046027;28;20679;-62
2023/01/11 09:11:55;;;;;;;10.20;2.00;;;9.40;99.90;;;;;;5045529;28;20246;-62
2023/01/11 09:14:24;;;;;;;11.50;1.67;;;9.40;99.90;;;;;;5045227;28;20227;-60
2023/01/11 09:16:52;;;;;;;11.47;2.33;;;9.40;99.90;;;;;;5044675;28;20219;-62
2023/01/11 09:19:19;;;;;;;14.67;2.07;;;9.40;99.90;;;;;;5047405;28;20210;-61
2023/01/11 09:21:46;;;;;;;12.07;2.40;;;9.50;99.90;;;;;;5031343;28;20561;-59
2023/01/11 09:24:13;;;;;;;9.70;2.33;;;9.50;99.90;;;;;;5047237;28;20318;-60
2023/01/11 09:26:42;;;;;;;10.07;1.77;;;9.50;99.90;;;;;;5046301;28;20219;-60
2023/01/11 09:29:10;;;;;;;16.60;2.27;;;9.50;99.90;;;;;;5042209;28;20705;-61
2023/01/11 09:31:37;;;;;;;16.23;2.20;;;9.50;99.90;;;;;;5033685;28;20308;-60
2023/01/11 09:34:05;;;;;;;8.67;2.00;;;9.40;99.90;;;;;;5048811;28;20216;-60
2023/01/11 09:36:34;;;;;;;12.27;3.10;;;9.50;99.90;;;;;;5048320;28;20212;-61
2023/01/11 09:39:06;;;;;;;12.90;1.97;;;9.50;99.90;;;;;;5045658;28;20212;-61
2023/01/11 09:41:36;;;;;;;14.57;2.37;;;9.50;99.90;;;;;;5050321;28;20209;-60
2023/01/11 09:44:14;;;;;;;13.57;2.27;;;9.50;99.90;;;;;;5023781;28;20245;-60
2023/01/11 09:46:47;;;;;;;10.67;2.00;;;9.70;99.90;;;;;;5029595;28;20282;-61
2023/01/11 09:49:22;;;;;;;8.50;1.63;;;9.90;99.90;;;;;;5027998;28;20228;-60
2023/01/11 09:51:50;;;;;;;10.97;2.43;;;10.00;99.90;;;;;;5036614;28;20552;-59
2023/01/11 09:54:25;;;;;;;16.47;1.80;;;10.10;99.90;;;;;;5028769;28;20549;-59
2023/01/11 09:57:13;;;;;;;9.10;2.00;;;10.10;99.90;;;;;;5016610;28;20750;-61
2023/01/11 09:59:59;;;;;;;9.43;2.50;;;10.20;99.90;;;;;;5025539;28;20205;-60
2023/01/11 10:02:33;;;;;;;7.60;2.00;;;10.30;99.90;;;;;;5018249;28;20688;-59
2023/01/11 10:05:45;;;;;;;9.10;1.90;;;10.40;99.90;;;;;;5019862;28;20218;-60
2023/01/11 10:08:46;;;;;;;8.97;1.63;;;10.60;99.90;;;;;;5009935;28;20347;-60
2023/01/11 10:12:04;;;;;;;8.77;1.97;;;10.80;99.90;;;;;;5017398;28;20234;-61
2023/01/11 10:15:12;;;;;;;9.40;1.53;;;11.00;99.90;;;;;;5029721;28;20302;-60
2023/01/11 10:18:16;;;;;;;14.30;2.10;;;11.00;99.90;;;;;;5016748;28;20206;-60
2023/01/11 10:21:17;;;;;;;5.60;2.13;;;10.80;99.90;;;;;;5020373;28;20239;-59
2023/01/11 10:24:03;;;;;;;10.80;1.70;;;10.70;99.90;;;;;;5019070;28;20224;-60
2023/01/11 10:26:38;;;;;;;8.67;2.07;;;11.00;99.90;;;;;;5019728;28;20295;-59
2023/01/11 10:40:18;;;;;;;12.90;2.10;;;11.10;99.90;;;;;;5018406;28;20257;-59
2023/01/11 10:43:19;;;;;;;11.00;2.27;;;11.10;99.90;;;;;;5020734;28;20226;-60
2023/01/11 10:46:04;;;;;;;6.03;1.83;;;10.90;99.90;;;;;;5038479;28;20298;-61
2023/01/11 10:48:39;;;;;;;11.40;1.87;;;11.00;99.90;;;;;;5037508;28;20200;-60
2023/01/11 10:51:30;;;;;;;12.37;2.33;;;10.90;99.90;;;;;;5038507;28;20552;-60
2023/01/11 10:54:17;;;;;;;10.70;2.20;;;10.90;99.90;;;;;;5039814;28;20207;-59
2023/01/11 10:57:07;;;;;;;8.03;2.20;;;11.00;99.90;;;;;;5035270;28;20258;-59
2023/01/11 11:00:06;;;;;;;12.00;1.83;;;11.30;99.90;;;;;;5037198;28;20209;-60
2023/01/11 11:02:36;;;;;;;11.47;2.23;;;11.40;99.90;;;;;;5021984;28;20283;-59
2023/01/11 11:05:10;;;;;;;8.50;1.93;;;11.30;99.90;;;;;;5037022;28;20221;-60
2023/01/11 11:07:43;;;;;;;9.27;2.43;;;11.20;99.90;;;;;;5037724;28;20210;-60
2023/01/11 11:10:33;;;;;;;9.80;2.07;;;11.10;99.90;;;;;;5037155;28;20492;-61
2023/01/11 11:13:10;;;;;;;13.17;2.20;;;11.00;99.90;;;;;;5028788;28;20210;-60
2023/01/11 11:15:50;;;;;;;9.27;1.77;;;11.10;99.90;;;;;;5038353;28;20667;-61
2023/01/11 11:18:19;;;;;;;9.43;1.70;;;11.10;99.90;;;;;;5038617;28;20198;-61
2023/01/11 11:20:46;;;;;;;9.80;2.33;;;11.10;99.90;;;;;;5020924;28;20199;-61
2023/01/11 11:23:15;;;;;;;10.57;1.97;;;11.00;99.90;;;;;;5021254;28;20568;-61
2023/01/11 11:25:47;;;;;;;9.37;2.10;;;11.10;99.90;;;;;;5019537;28;20297;-62
2023/01/11 11:28:28;;;;;;;9.87;1.87;;;11.30;99.90;;;;;;5037969;28;20206;-61
2023/01/11 11:31:06;;;;;;;14.27;2.87;;;11.30;99.90;;;;;;5038456;28;20206;-60
2023/01/11 11:33:36;;;;;;;13.83;2.47;;;11.40;99.90;;;;;;5036825;28;20202;-60
2023/01/11 11:36:09;;;;;;;13.03;2.17;;;11.40;99.90;;;;;;5022726;28;20622;-61
2023/01/11 11:38:38;;;;;;;9.80;2.33;;;11.50;99.90;;;;;;5028708;28;20233;-61
2023/01/11 11:41:15;;;;;;;8.37;2.53;;;11.80;99.90;;;;;;5037832;28;20230;-61
2023/01/11 11:43:44;;;;;;;12.57;1.87;;;11.70;99.90;;;;;;5019965;28;20650;-61
2023/01/11 11:46:23;;;;;;;11.07;1.63;;;11.60;99.90;;;;;;5038540;28;20206;-61
2023/01/11 11:49:14;;;;;;;13.80;2.60;;;11.70;99.90;;;;;;5017218;28;20223;-62
2023/01/11 11:51:43;;;;;;;14.10;2.43;;;11.70;99.90;;;;;;5032314;28;20730;-63
2023/01/11 11:54:30;;;;;;;12.50;2.67;;;12.10;99.90;;;;;;5031035;28;20303;-61
2023/01/11 11:57:17;;;;;;;11.67;2.50;;;12.20;99.90;;;;;;5032169;28;20236;-60
2023/01/11 11:59:47;;;;;;;10.50;2.17;;;12.10;99.90;;;;;;5031204;28;20201;-61
2023/01/11 12:02:31;;;;;;;11.63;2.13;;;11.90;99.90;;;;;;5017313;28;20206;-61
2023/01/11 12:05:05;;;;;;;9.63;2.03;;;11.50;99.90;;;;;;5033578;28;20218;-60
2023/01/11 12:07:35;;;;;;;7.20;1.97;;;11.30;99.90;;;;;;5017645;28;20310;-63
2023/01/11 12:10:28;;;;;;;8.17;1.70;;;11.20;99.90;;;;;;5033942;28;20663;-62
2023/01/11 12:12:55;;;;;;;11.07;1.70;;;11.00;99.90;;;;;;5032629;28;20209;-62
2023/01/11 12:15:27;;;;;;;10.43;3.20;;;11.00;99.90;;;;;;5015475;28;20206;-62
2023/01/11 12:18:12;;;;;;;9.13;1.90;;;10.90;99.90;;;;;;5012236;28;20233;-62
2023/01/11 12:20:43;;;;;;;11.70;2.57;;;10.90;99.90;;;;;;5016439;28;20585;-62
2023/01/11 12:23:15;;;;;;;9.33;1.60;;;10.90;99.90;;;;;;5031973;28;20225;-62
2023/01/11 12:25:57;;;;;;;12.43;1.83;;;10.90;99.90;;;;;;5029600;28;20222;-63
2023/01/11 12:29:02;;;;;;;14.37;2.13;;;10.80;99.90;;;;;;5030751;28;20205;-62
2023/01/11 12:31:51;;;;;;;10.07;1.70;;;10.80;99.90;;;;;;5020369;28;21013;-62
2023/01/11 12:34:21;;;;;;;16.73;2.33;;;10.90;99.90;;;;;;5019213;28;20279;-62
2023/01/11 12:36:51;;;;;;;10.83;2.27;;;10.90;99.90;;;;;;5029860;28;20205;-62
2023/01/11 12:39:47;;;;;;;11.43;1.90;;;11.20;99.90;;;;;;5023752;28;20614;-61
2023/01/11 12:42:26;;;;;;;8.17;1.97;;;11.40;99.90;;;;;;5027529;28;20310;-62
2023/01/11 12:45:30;;;;;;;11.77;3.07;;;11.30;99.90;;;;;;5028820;28;21659;-62
2023/01/11 12:48:25;;;;;;;11.65;2.72;;;11.00;99.90;;;;;;5026638;28;21022;-61
2023/01/11 12:51:23;;;;;;;11.33;2.37;;;11.00;99.90;;;;;;5014216;28;20206;-62
2023/01/11 12:54:04;;;;;;;9.23;2.20;;;11.10;99.90;;;;;;5026405;28;20257;-62
2023/01/11 12:56:42;;;;;;;10.60;2.30;;;11.20;99.90;;;;;;5032926;28;20234;-62
2023/01/11 12:59:21;;;;;;;9.70;1.83;;;11.20;99.90;;;;;;5022091;28;20651;-61
2023/01/11 13:01:54;;;;;;;9.93;2.77;;;11.30;99.90;;;;;;5029254;28;20222;-61
2023/01/11 13:04:29;;;;;;;10.50;1.80;;;11.20;99.90;;;;;;5032638;28;20277;-62
2023/01/11 13:07:15;;;;;;;15.07;3.93;;;11.20;99.90;;;;;;5030825;28;20289;-62
2023/01/11 13:10:16;;;;;;;9.57;2.00;;;11.20;99.90;;;;;;5030856;28;20215;-61
2023/01/11 13:13:10;;;;;;;14.07;3.63;;;11.10;99.90;;;;;;5034618;28;20196;-62
2023/01/11 13:15:42;;;;;;;20.33;3.00;;;11.10;99.90;;;;;;5020333;28;20293;-62
2023/01/11 13:18:47;;;;;;;8.67;1.63;;;11.20;99.90;;;;;;5032902;28;20656;-61
2023/01/11 13:21:27;;;;;;;6.43;1.60;;;11.10;99.90;;;;;;5034069;28;20235;-62
2023/01/11 13:24:01;;;;;;;9.83;2.70;;;11.00;99.90;;;;;;5018054;28;20206;-61
2023/01/11 13:26:36;;;;;;;17.33;2.53;;;11.10;99.90;;;;;;5032883;28;20970;-61
2023/01/11 13:29:11;;;;;;;9.80;2.73;;;11.10;99.90;;;;;;5033934;28;20217;-62
2023/01/11 13:31:39;;;;;;;12.53;2.17;;;11.10;99.90;;;;;;5036075;28;20198;-61
2023/01/11 13:34:13;;;;;;;13.83;2.03;;;11.10;99.90;;;;;;5039515;28;20217;-62
2023/01/11 13:36:44;;;;;;;8.83;1.77;;;11.10;99.90;;;;;;5024100;28;20202;-62
2023/01/11 13:39:36;;;;;;;12.43;2.27;;;11.20;99.90;;;;;;5035559;28;20250;-62
2023/01/11 13:42:21;;;;;;;7.37;1.80;;;11.20;99.90;;;;;;5029400;28;20696;-62
2023/01/11 13:44:59;;;;;;;9.03;1.87;;;11.20;99.90;;;;;;5038592;28;20234;-62
2023/01/11 13:47:35;;;;;;;10.33;2.10;;;11.10;99.90;;;;;;5031675;28;20242;-62
2023/01/11 13:50:44;;;;;;;9.23;2.10;;;11.10;99.90;;;;;;5036397;28;20235;-63